Time;durP1;ratioP1;P1;durP2;ratioP2;P2;SDS_P1;SDS_P2;PMS_P1;PMS_P2;Temp;Humidity;BMP_temperature;BMP_pressure;BME280_temperature;BME280_humidity;BME280_pressure;Samples;Min_cycle;Max_cycle;Signal;HPM_P1;HPM_P2
2023/11/25 00:00:52;;;;;;;9.57;2.60;;;3.10;99.90;;;;;;5068810;28;20085;-65
2023/11/25 00:03:17;;;;;;;13.35;1.23;;;3.10;99.90;;;;;;5067704;28;20171;-65
2023/11/25 00:05:43;;;;;;;8.20;1.63;;;3.00;99.90;;;;;;5066275;28;20482;-65
2023/11/25 00:08:09;;;;;;;6.85;1.30;;;3.00;99.90;;;;;;5065442;28;20039;-65
2023/11/25 00:10:35;;;;;;;6.18;1.13;;;3.00;99.90;;;;;;5065606;28;20422;-65
2023/11/25 00:13:01;;;;;;;6.38;1.05;;;3.00;99.90;;;;;;5099865;27;20052;-65
2023/11/25 00:15:28;;;;;;;10.50;1.48;;;3.00;99.90;;;;;;5068846;28;20475;-65
2023/11/25 00:17:55;;;;;;;9.10;1.15;;;3.00;99.90;;;;;;5099201;28;20041;-65
2023/11/25 00:20:21;;;;;;;6.35;0.73;;;2.90;99.90;;;;;;5064722;28;20059;-65
2023/11/25 00:22:47;;;;;;;10.43;2.03;;;3.00;99.90;;;;;;5065431;28;20614;-65
2023/11/25 00:25:13;;;;;;;9.40;0.88;;;2.90;99.90;;;;;;5068199;28;20414;-65
2023/11/25 00:27:39;;;;;;;8.50;1.98;;;2.90;99.90;;;;;;5069040;28;20546;-65
2023/11/25 00:30:06;;;;;;;8.45;0.93;;;2.80;99.90;;;;;;5046566;28;20398;-65
2023/11/25 00:32:41;;;;;;;5.97;1.35;;;2.80;99.90;;;;;;5067937;28;20040;-65
2023/11/25 00:35:08;;;;;;;12.25;1.33;;;2.80;99.90;;;;;;5066733;28;20065;-65
2023/11/25 00:37:35;;;;;;;10.10;2.78;;;2.80;99.90;;;;;;5068076;28;20110;-65
2023/11/25 00:40:02;;;;;;;12.88;1.92;;;2.80;99.90;;;;;;5065405;28;20048;-65
2023/11/25 00:42:27;;;;;;;10.82;1.20;;;2.80;99.90;;;;;;5065822;28;20456;-65
2023/11/25 00:44:53;;;;;;;11.30;2.83;;;2.80;99.90;;;;;;5064869;28;20044;-65
2023/11/25 00:47:19;;;;;;;9.32;1.05;;;2.70;99.90;;;;;;5065840;28;20055;-65
2023/11/25 00:49:48;;;;;;;7.95;1.27;;;2.80;99.90;;;;;;5063898;28;20056;-65
2023/11/25 00:52:14;;;;;;;5.68;0.95;;;2.70;99.90;;;;;;5067782;28;20044;-65
2023/11/25 00:54:40;;;;;;;10.30;1.27;;;2.70;99.90;;;;;;5067902;28;20062;-65
2023/11/25 00:57:05;;;;;;;10.00;1.13;;;2.80;99.90;;;;;;5062751;28;20037;-65
2023/11/25 00:59:31;;;;;;;11.07;1.55;;;2.70;99.90;;;;;;5060722;28;20114;-65
2023/11/25 01:01:57;;;;;;;12.32;1.23;;;2.80;99.90;;;;;;5067123;28;20052;-65
2023/11/25 01:04:22;;;;;;;11.02;1.25;;;2.80;99.90;;;;;;5066367;28;20573;-65
2023/11/25 01:06:48;;;;;;;10.70;1.25;;;2.90;99.90;;;;;;5067306;28;20044;-65
2023/11/25 01:09:16;;;;;;;16.02;2.17;;;2.90;99.90;;;;;;5063703;28;20047;-65
2023/11/25 01:11:47;;;;;;;12.52;1.52;;;2.90;99.90;;;;;;5066697;28;20049;-65
2023/11/25 01:14:13;;;;;;;10.57;1.88;;;3.20;99.90;;;;;;5064423;28;20479;-65
2023/11/25 01:16:39;;;;;;;15.63;1.55;;;3.40;99.90;;;;;;5065511;28;20032;-65
2023/11/25 01:19:05;;;;;;;16.45;2.03;;;3.50;99.90;;;;;;5063414;28;20652;-65
2023/11/25 01:21:31;;;;;;;12.35;1.88;;;3.60;99.90;;;;;;5097159;28;20125;-65
2023/11/25 01:23:56;;;;;;;10.10;1.50;;;3.60;99.90;;;;;;5066883;28;20064;-65
2023/11/25 01:26:22;;;;;;;18.27;2.10;;;3.80;99.90;;;;;;5067230;28;20043;-66
2023/11/25 01:28:48;;;;;;;14.52;1.63;;;3.80;99.90;;;;;;5066353;28;20033;-65
2023/11/25 01:31:14;;;;;;;15.38;2.75;;;3.80;99.90;;;;;;5096448;28;20055;-65
2023/11/25 01:33:40;;;;;;;12.35;1.48;;;3.80;99.90;;;;;;5064330;28;20057;-65
2023/11/25 01:36:09;;;;;;;16.63;2.70;;;3.80;99.90;;;;;;5067100;28;20470;-65
2023/11/25 01:38:38;;;;;;;14.40;2.50;;;3.80;99.90;;;;;;5079418;28;20062;-65
2023/11/25 01:41:06;;;;;;;12.70;2.45;;;3.80;99.90;;;;;;5065262;28;20055;-65
2023/11/25 01:43:32;;;;;;;9.13;1.48;;;3.80;99.90;;;;;;5068565;28;20040;-65
2023/11/25 01:46:01;;;;;;;12.45;1.52;;;3.70;99.90;;;;;;5064814;28;20044;-65
2023/11/25 01:48:28;;;;;;;15.85;2.38;;;3.70;99.90;;;;;;5065644;28;20028;-65
2023/11/25 01:50:55;;;;;;;8.27;1.50;;;3.70;99.90;;;;;;5096178;28;20486;-65
2023/11/25 01:53:22;;;;;;;12.20;2.15;;;3.70;99.90;;;;;;5097245;28;20223;-65
2023/11/25 01:55:51;;;;;;;13.15;2.33;;;3.70;99.90;;;;;;5047739;28;20037;-65
2023/11/25 01:58:19;;;;;;;12.02;1.80;;;3.70;99.90;;;;;;5098352;28;20086;-65
2023/11/25 02:00:46;;;;;;;16.40;2.20;;;3.70;99.90;;;;;;5066321;28;20123;-65
2023/11/25 02:03:16;;;;;;;14.63;2.55;;;3.80;99.90;;;;;;5063856;28;20059;-65
2023/11/25 02:05:46;;;;;;;12.43;1.98;;;3.80;99.90;;;;;;5065394;28;20127;-65
2023/11/25 02:08:12;;;;;;;13.05;2.35;;;3.80;99.90;;;;;;5066981;28;20044;-65
2023/11/25 02:10:39;;;;;;;10.48;1.83;;;3.80;99.90;;;;;;5065548;28;20040;-65
2023/11/25 02:13:08;;;;;;;7.25;1.25;;;3.90;99.90;;;;;;5062154;28;20459;-65
2023/11/25 02:15:38;;;;;;;10.93;1.70;;;3.90;99.90;;;;;;5065212;28;20479;-65
2023/11/25 02:18:04;;;;;;;13.55;1.83;;;4.00;99.90;;;;;;5065594;28;20041;-65
2023/11/25 02:20:36;;;;;;;15.27;1.80;;;4.00;99.90;;;;;;5061918;28;20044;-65
2023/11/25 02:23:02;;;;;;;16.05;1.90;;;3.90;99.90;;;;;;5046460;28;20048;-65
2023/11/25 02:25:28;;;;;;;16.25;2.17;;;4.00;99.90;;;;;;5063722;28;20494;-65
2023/11/25 02:27:55;;;;;;;14.43;2.20;;;4.10;99.90;;;;;;5068507;28;20585;-66
2023/11/25 02:30:23;;;;;;;12.27;1.85;;;4.10;99.90;;;;;;5063706;28;20045;-66
2023/11/25 02:32:51;;;;;;;18.95;1.85;;;4.20;99.90;;;;;;5066347;28;20505;-66
2023/11/25 02:35:17;;;;;;;18.02;2.05;;;4.20;99.90;;;;;;5063589;28;20067;-65
2023/11/25 02:37:47;;;;;;;9.25;1.52;;;4.30;99.90;;;;;;5093097;28;20040;-66
2023/11/25 02:40:18;;;;;;;17.25;2.67;;;4.20;99.90;;;;;;5065157;28;20044;-66
2023/11/25 02:42:50;;;;;;;13.10;1.88;;;4.20;99.90;;;;;;5067528;28;20029;-66
2023/11/25 02:45:20;;;;;;;12.50;1.67;;;4.10;99.90;;;;;;5067402;28;20048;-66
2023/11/25 02:47:47;;;;;;;10.20;1.70;;;4.10;99.90;;;;;;5068377;28;20394;-66
2023/11/25 02:50:13;;;;;;;15.65;2.35;;;4.10;99.90;;;;;;5068424;28;20410;-66
2023/11/25 02:52:40;;;;;;;14.38;2.22;;;4.00;99.90;;;;;;5067524;28;20044;-66
2023/11/25 02:55:06;;;;;;;15.48;2.38;;;4.00;99.90;;;;;;5068697;28;20503;-66
2023/11/25 02:57:32;;;;;;;15.38;2.17;;;4.00;99.90;;;;;;5068493;28;20056;-66
2023/11/25 03:00:10;;;;;;;20.45;1.92;;;4.00;99.90;;;;;;5068745;28;20048;-66
2023/11/25 03:02:35;;;;;;;15.93;2.60;;;3.90;99.90;;;;;;5100804;27;20075;-66
2023/11/25 03:05:01;;;;;;;16.92;2.10;;;3.90;99.90;;;;;;5068370;28;20049;-66
2023/11/25 03:07:30;;;;;;;10.80;1.80;;;3.90;99.90;;;;;;5070440;28;20344;-66
2023/11/25 03:09:55;;;;;;;15.50;1.92;;;3.90;99.90;;;;;;5066001;28;20060;-66
2023/11/25 03:12:22;;;;;;;16.42;2.70;;;3.90;99.90;;;;;;5067454;28;21209;-66
2023/11/25 03:14:48;;;;;;;13.95;2.20;;;3.90;99.90;;;;;;5099897;27;20076;-65
2023/11/25 03:17:13;;;;;;;13.38;1.48;;;3.80;99.90;;;;;;5068816;28;20133;-66
2023/11/25 03:19:39;;;;;;;10.02;1.40;;;3.80;99.90;;;;;;5066390;28;20048;-65
2023/11/25 03:22:04;;;;;;;11.60;1.40;;;3.80;99.90;;;;;;5065224;28;20094;-66
2023/11/25 03:24:30;;;;;;;16.58;2.90;;;3.80;99.90;;;;;;5069877;28;20490;-65
2023/11/25 03:26:57;;;;;;;18.60;2.80;;;3.80;99.90;;;;;;5067602;28;20079;-66
2023/11/25 03:29:24;;;;;;;12.13;2.28;;;3.80;99.90;;;;;;5097409;27;20525;-66
2023/11/25 03:31:51;;;;;;;14.60;2.45;;;3.80;99.90;;;;;;5068277;28;20170;-66
2023/11/25 03:34:17;;;;;;;10.60;1.75;;;3.80;99.90;;;;;;5069611;28;20041;-66
2023/11/25 03:36:43;;;;;;;14.48;1.67;;;3.80;99.90;;;;;;5067787;28;20392;-66
2023/11/25 03:39:09;;;;;;;14.57;2.50;;;3.90;99.90;;;;;;5067357;28;20159;-66
2023/11/25 03:41:35;;;;;;;12.95;1.92;;;3.90;99.90;;;;;;5098106;28;20391;-65
2023/11/25 03:44:01;;;;;;;15.50;2.88;;;4.00;99.90;;;;;;5066124;28;20048;-65
2023/11/25 03:46:30;;;;;;;16.35;1.52;;;4.10;99.90;;;;;;5069153;28;20044;-65
2023/11/25 03:48:55;;;;;;;11.02;2.83;;;4.20;99.90;;;;;;5069558;28;20070;-66
2023/11/25 03:51:21;;;;;;;10.02;1.38;;;4.20;99.90;;;;;;5070104;28;20032;-66
2023/11/25 03:53:47;;;;;;;11.63;1.70;;;4.40;99.90;;;;;;5066481;28;20028;-65
2023/11/25 03:56:13;;;;;;;15.23;3.05;;;4.40;99.90;;;;;;5095260;28;20123;-66
2023/11/25 03:58:39;;;;;;;13.93;2.30;;;4.50;99.90;;;;;;5068700;28;20040;-66
2023/11/25 04:01:05;;;;;;;11.70;2.28;;;4.50;99.90;;;;;;5068074;28;20036;-66
2023/11/25 04:03:32;;;;;;;8.70;2.45;;;4.60;99.90;;;;;;5066795;28;20059;-66
2023/11/25 04:05:58;;;;;;;8.70;1.33;;;4.50;99.90;;;;;;5066910;28;20037;-66
2023/11/25 04:08:23;;;;;;;7.10;1.50;;;4.60;99.90;;;;;;5050963;28;20502;-66
2023/11/25 04:10:50;;;;;;;6.05;1.02;;;4.60;99.90;;;;;;5067469;28;20068;-66
2023/11/25 04:13:16;;;;;;;7.72;1.13;;;4.70;99.90;;;;;;5066114;28;20052;-66
2023/11/25 04:15:42;;;;;;;7.70;0.98;;;4.70;99.90;;;;;;5067371;28;20055;-66
2023/11/25 04:18:07;;;;;;;3.80;0.40;;;4.70;99.90;;;;;;5068804;28;20029;-66
2023/11/25 04:20:33;;;;;;;3.55;0.60;;;4.70;99.90;;;;;;5068283;28;20047;-66
2023/11/25 04:23:05;;;;;;;5.65;0.82;;;4.60;99.90;;;;;;5068664;28;20048;-66
2023/11/25 04:25:31;;;;;;;7.60;0.80;;;4.60;99.90;;;;;;5066744;28;20090;-66
2023/11/25 04:27:57;;;;;;;3.13;0.70;;;4.60;99.90;;;;;;5068716;28;20041;-66
2023/11/25 04:30:23;;;;;;;3.58;0.63;;;4.60;99.90;;;;;;5046968;28;20041;-66
2023/11/25 04:32:48;;;;;;;3.20;0.40;;;4.60;99.90;;;;;;5067583;28;20491;-66
2023/11/25 04:35:15;;;;;;;8.07;0.30;;;4.70;99.90;;;;;;5067216;28;20039;-66
2023/11/25 04:37:45;;;;;;;1.48;0.20;;;4.60;99.90;;;;;;5065026;28;20041;-66
2023/11/25 04:40:11;;;;;;;2.67;0.40;;;4.50;99.90;;;;;;5064521;28;20077;-66
2023/11/25 04:42:41;;;;;;;2.03;1.02;;;4.40;99.90;;;;;;5066864;28;20040;-66
2023/11/25 04:45:16;;;;;;;4.32;0.40;;;4.30;99.90;;;;;;5067888;28;20113;-66
2023/11/25 04:47:46;;;;;;;2.60;0.20;;;4.40;99.90;;;;;;5069037;28;20047;-66
2023/11/25 04:50:12;;;;;;;0.88;0.15;;;4.30;99.90;;;;;;5066760;28;20783;-66
2023/11/25 04:52:38;;;;;;;0.93;0.10;;;4.30;99.90;;;;;;5068080;28;20037;-66
2023/11/25 04:55:06;;;;;;;1.77;0.17;;;4.30;99.90;;;;;;5067563;28;20032;-66
2023/11/25 04:57:32;;;;;;;3.95;0.30;;;4.30;99.90;;;;;;5068506;28;20648;-65
2023/11/25 04:59:58;;;;;;;1.20;0.10;;;4.20;99.90;;;;;;5064718;28;20048;-66
2023/11/25 05:02:23;;;;;;;3.97;0.70;;;4.20;99.90;;;;;;5066483;28;20064;-66
2023/11/25 05:04:49;;;;;;;1.88;0.28;;;4.10;99.90;;;;;;5068587;28;20029;-66
2023/11/25 05:07:15;;;;;;;3.38;0.55;;;4.10;99.90;;;;;;5067918;28;20090;-66
2023/11/25 05:09:41;;;;;;;3.30;0.32;;;4.10;99.90;;;;;;5067779;28;20141;-65
2023/11/25 05:12:07;;;;;;;4.38;0.32;;;4.10;99.90;;;;;;5064673;28;20551;-66
2023/11/25 05:14:33;;;;;;;4.18;0.30;;;4.10;99.90;;;;;;5068275;28;20374;-66
2023/11/25 05:16:59;;;;;;;2.53;0.20;;;4.10;99.90;;;;;;5067031;28;20036;-66
2023/11/25 05:19:25;;;;;;;4.32;0.32;;;4.10;99.90;;;;;;5066047;28;20032;-65
2023/11/25 05:21:52;;;;;;;8.73;1.13;;;4.10;99.90;;;;;;5067985;28;20059;-66
2023/11/25 05:24:18;;;;;;;4.80;0.30;;;4.20;99.90;;;;;;5067300;28;20071;-66
2023/11/25 05:26:44;;;;;;;3.47;0.32;;;4.20;99.90;;;;;;5063842;28;20041;-65
2023/11/25 05:29:09;;;;;;;5.50;0.30;;;4.20;99.90;;;;;;5063916;28;20032;-66
2023/11/25 05:31:35;;;;;;;3.85;0.43;;;4.20;99.90;;;;;;5065929;28;20039;-66
2023/11/25 05:34:05;;;;;;;6.78;0.70;;;4.30;99.90;;;;;;5049254;28;20490;-66
2023/11/25 05:36:32;;;;;;;5.50;0.60;;;4.40;99.90;;;;;;5066701;28;20044;-66
2023/11/25 05:38:59;;;;;;;6.25;1.20;;;4.40;99.90;;;;;;5066793;28;20131;-66
2023/11/25 05:41:27;;;;;;;8.52;0.98;;;4.40;99.90;;;;;;5067921;28;20032;-66
2023/11/25 05:43:53;;;;;;;8.48;0.90;;;4.40;99.90;;;;;;5063975;28;20059;-66
2023/11/25 05:46:25;;;;;;;9.23;0.80;;;4.50;99.90;;;;;;5063866;28;20390;-66
2023/11/25 05:48:52;;;;;;;7.63;1.27;;;4.50;99.90;;;;;;5094906;27;20115;-66
2023/11/25 05:51:18;;;;;;;10.25;1.58;;;4.50;99.90;;;;;;5095543;28;20029;-66
2023/11/25 05:53:44;;;;;;;7.60;0.70;;;4.50;99.90;;;;;;5064888;28;20398;-66
2023/11/25 05:56:10;;;;;;;10.90;0.80;;;4.50;99.90;;;;;;5066030;28;20048;-66
2023/11/25 05:58:35;;;;;;;9.52;1.02;;;4.40;99.90;;;;;;5067819;28;20379;-65
2023/11/25 06:01:02;;;;;;;7.47;1.17;;;4.40;99.90;;;;;;5065443;28;20047;-65
2023/11/25 06:03:28;;;;;;;11.43;2.13;;;4.40;99.90;;;;;;5067146;28;20040;-65
2023/11/25 06:05:54;;;;;;;8.07;1.02;;;4.30;99.90;;;;;;5065774;28;20029;-66
2023/11/25 06:08:20;;;;;;;7.97;0.93;;;4.30;99.90;;;;;;5068191;28;20084;-66
2023/11/25 06:10:48;;;;;;;5.95;1.02;;;4.30;99.90;;;;;;5060555;28;20087;-66
2023/11/25 06:13:14;;;;;;;5.50;0.88;;;4.30;99.90;;;;;;5061353;28;20028;-66
2023/11/25 06:15:40;;;;;;;7.63;0.73;;;4.20;99.90;;;;;;5065041;28;20239;-66
2023/11/25 06:18:07;;;;;;;5.32;0.75;;;4.20;99.90;;;;;;5065991;28;20041;-66
2023/11/25 06:20:34;;;;;;;6.10;0.70;;;4.10;99.90;;;;;;5067597;28;20215;-66
2023/11/25 06:23:00;;;;;;;13.68;0.98;;;4.10;99.90;;;;;;5065630;28;20055;-66
2023/11/25 06:25:26;;;;;;;6.85;0.70;;;4.10;99.90;;;;;;5067205;28;20040;-66
2023/11/25 06:27:52;;;;;;;7.03;0.50;;;4.20;99.90;;;;;;5067455;28;20036;-66
2023/11/25 06:30:18;;;;;;;7.43;0.95;;;4.20;99.90;;;;;;5066464;28;20044;-66
2023/11/25 06:32:44;;;;;;;6.78;0.68;;;4.20;99.90;;;;;;5067128;28;20402;-66
2023/11/25 06:35:11;;;;;;;8.25;0.70;;;4.20;99.90;;;;;;5097312;27;20943;-66
2023/11/25 06:37:39;;;;;;;6.60;1.08;;;4.30;99.90;;;;;;5070878;28;20044;-65
2023/11/25 06:40:06;;;;;;;2.22;0.30;;;4.30;99.90;;;;;;5068081;28;20547;-66
2023/11/25 06:42:33;;;;;;;3.08;0.40;;;4.30;99.90;;;;;;5067222;28;20414;-66
2023/11/25 06:44:58;;;;;;;7.32;1.02;;;4.00;99.90;;;;;;5068961;28;20443;-65
2023/11/25 06:47:24;;;;;;;5.75;0.55;;;4.40;99.90;;;;;;5069055;28;20048;-65
2023/11/25 06:49:52;;;;;;;5.53;0.32;;;4.40;99.90;;;;;;5066908;28;20455;-66
2023/11/25 06:52:18;;;;;;;5.15;0.82;;;4.40;99.90;;;;;;5069809;28;20477;-66
2023/11/25 06:54:44;;;;;;;3.47;0.30;;;4.40;99.90;;;;;;5066106;28;20032;-66
2023/11/25 06:57:10;;;;;;;7.18;0.57;;;4.40;99.90;;;;;;5066220;28;20033;-66
2023/11/25 06:59:36;;;;;;;2.30;0.28;;;4.40;99.90;;;;;;5064864;28;20051;-66
2023/11/25 07:02:03;;;;;;;2.65;0.25;;;4.30;99.90;;;;;;5067630;28;20040;-66
2023/11/25 07:04:29;;;;;;;8.10;1.38;;;4.30;99.90;;;;;;5068029;28;20056;-66
2023/11/25 07:06:55;;;;;;;5.75;0.50;;;4.30;99.90;;;;;;5066766;28;20140;-66
2023/11/25 07:09:21;;;;;;;3.17;0.45;;;4.20;99.90;;;;;;5066615;28;20139;-66
2023/11/25 07:11:48;;;;;;;1.75;0.20;;;4.20;99.90;;;;;;5067859;28;20052;-66
2023/11/25 07:14:15;;;;;;;3.75;0.45;;;4.20;99.90;;;;;;5065705;28;20063;-66
2023/11/25 07:16:40;;;;;;;2.53;0.40;;;4.10;99.90;;;;;;5063033;28;20074;-66
2023/11/25 07:19:08;;;;;;;8.35;0.40;;;4.10;99.90;;;;;;5065771;28;20033;-66
2023/11/25 07:21:33;;;;;;;7.43;0.63;;;4.20;99.90;;;;;;5065613;28;20054;-66
2023/11/25 07:23:59;;;;;;;4.82;0.65;;;4.20;99.90;;;;;;5064134;28;20028;-66
2023/11/25 07:26:26;;;;;;;7.40;1.13;;;4.20;99.90;;;;;;5065599;28;20040;-66
2023/11/25 07:28:52;;;;;;;9.13;1.30;;;4.30;99.90;;;;;;5093306;28;20601;-66
2023/11/25 07:31:17;;;;;;;11.65;1.75;;;4.40;99.90;;;;;;5064897;28;20471;-66
2023/11/25 07:33:43;;;;;;;8.38;0.73;;;4.50;99.90;;;;;;5065273;28;20102;-66
2023/11/25 07:36:09;;;;;;;7.85;0.98;;;4.60;99.90;;;;;;5064694;28;20423;-65
2023/11/25 07:38:34;;;;;;;9.85;1.48;;;4.60;99.90;;;;;;5065231;28;20108;-66
2023/11/25 07:41:00;;;;;;;13.63;1.70;;;4.60;99.90;;;;;;5066177;28;20048;-66
2023/11/25 07:43:26;;;;;;;7.57;0.70;;;4.70;99.90;;;;;;5064510;28;20041;-66
2023/11/25 07:45:52;;;;;;;8.80;1.00;;;4.70;99.90;;;;;;5063438;28;20048;-66
2023/11/25 07:48:19;;;;;;;7.88;1.02;;;4.70;99.90;;;;;;5067131;28;20032;-66
2023/11/25 07:50:45;;;;;;;11.20;1.35;;;4.80;99.90;;;;;;5064399;28;20123;-66
2023/11/25 07:53:14;;;;;;;12.20;1.75;;;4.80;99.90;;;;;;5064786;28;20792;-66
2023/11/25 07:55:40;;;;;;;10.52;1.38;;;4.90;99.90;;;;;;5063780;28;20043;-66
2023/11/25 07:58:06;;;;;;;8.27;1.23;;;5.00;99.90;;;;;;5065167;28;20334;-66
2023/11/25 08:00:31;;;;;;;12.63;1.20;;;5.00;99.90;;;;;;5065617;28;20189;-66
2023/11/25 08:02:58;;;;;;;9.25;1.40;;;5.10;99.90;;;;;;5064589;28;20048;-66
2023/11/25 08:05:28;;;;;;;8.43;1.38;;;5.10;99.90;;;;;;5064736;28;20520;-66
2023/11/25 08:07:55;;;;;;;10.77;1.13;;;5.20;99.90;;;;;;5066634;28;20073;-66
2023/11/25 08:10:23;;;;;;;8.98;1.02;;;5.30;99.90;;;;;;5065908;28;20510;-66
2023/11/25 08:12:49;;;;;;;6.55;0.80;;;5.30;99.90;;;;;;5066013;28;20040;-66
2023/11/25 08:15:15;;;;;;;7.15;0.95;;;5.40;99.90;;;;;;5065532;28;20033;-66
2023/11/25 08:17:42;;;;;;;6.72;1.25;;;5.40;99.90;;;;;;5068175;28;20058;-66
2023/11/25 08:20:10;;;;;;;8.25;0.85;;;5.40;99.90;;;;;;5064612;28;20489;-66
2023/11/25 08:22:36;;;;;;;11.60;1.65;;;5.40;99.90;;;;;;5067449;28;20048;-66
2023/11/25 08:25:07;;;;;;;12.65;1.42;;;5.50;99.90;;;;;;5064901;28;20044;-66
2023/11/25 08:27:39;;;;;;;10.70;1.73;;;5.40;99.90;;;;;;5065183;28;20064;-66
2023/11/25 08:30:09;;;;;;;6.05;1.27;;;5.50;99.90;;;;;;5059696;28;20116;-66
2023/11/25 08:32:38;;;;;;;9.70;1.40;;;5.60;99.90;;;;;;5066306;28;20041;-66
2023/11/25 08:35:05;;;;;;;6.63;1.23;;;5.70;99.90;;;;;;5066063;28;20036;-66
2023/11/25 08:37:31;;;;;;;9.25;1.35;;;5.80;99.90;;;;;;5066137;28;20572;-65
2023/11/25 08:39:57;;;;;;;10.48;1.80;;;5.80;99.90;;;;;;5060779;28;20123;-66
2023/11/25 08:42:26;;;;;;;8.30;1.20;;;5.90;99.90;;;;;;5062221;28;20044;-65
2023/11/25 08:44:52;;;;;;;11.38;0.90;;;6.00;99.90;;;;;;5064973;28;20044;-66
2023/11/25 08:47:18;;;;;;;13.07;1.65;;;6.00;99.90;;;;;;5063274;28;20055;-66
2023/11/25 08:49:45;;;;;;;8.00;1.13;;;6.00;99.90;;;;;;5063721;28;20507;-66
2023/11/25 08:52:12;;;;;;;14.30;1.20;;;6.00;99.90;;;;;;5066764;28;20045;-66
2023/11/25 08:54:37;;;;;;;7.93;1.02;;;6.00;99.90;;;;;;5067226;28;20045;-66
2023/11/25 08:57:03;;;;;;;7.78;1.02;;;6.00;99.90;;;;;;5066486;28;20048;-66
2023/11/25 08:59:31;;;;;;;9.93;1.55;;;6.00;99.90;;;;;;5066219;28;20043;-66
2023/11/25 09:01:58;;;;;;;8.98;1.50;;;6.00;99.90;;;;;;5064003;28;20048;-66
2023/11/25 09:04:25;;;;;;;11.55;1.48;;;6.00;99.90;;;;;;5065491;28;20506;-66
2023/11/25 09:06:52;;;;;;;13.18;1.50;;;6.00;99.90;;;;;;5065810;28;20414;-66
2023/11/25 09:09:20;;;;;;;9.32;1.40;;;6.00;99.90;;;;;;5064290;28;20505;-66
2023/11/25 09:11:50;;;;;;;9.95;1.10;;;6.00;99.90;;;;;;5065858;28;20067;-66
2023/11/25 09:14:28;;;;;;;5.63;0.95;;;6.00;99.90;;;;;;5121987;27;20416;-66
2023/11/25 09:16:54;;;;;;;6.85;0.90;;;6.00;99.90;;;;;;5122333;27;20396;-66
2023/11/25 09:19:20;;;;;;;12.95;2.08;;;5.90;99.90;;;;;;5121479;27;20127;-66
2023/11/25 09:21:46;;;;;;;13.50;1.52;;;5.90;99.90;;;;;;5118456;27;20043;-66
2023/11/25 09:24:11;;;;;;;12.45;1.60;;;5.90;99.90;;;;;;5117981;27;20042;-66
2023/11/25 09:26:37;;;;;;;13.18;1.13;;;5.80;99.90;;;;;;5122476;27;20493;-66
2023/11/25 09:29:03;;;;;;;8.13;1.30;;;5.90;99.90;;;;;;5113046;27;20046;-66
2023/11/25 09:31:29;;;;;;;16.58;1.75;;;5.90;99.90;;;;;;5118910;27;20035;-66
2023/11/25 09:33:56;;;;;;;7.50;1.08;;;5.90;99.90;;;;;;5120698;27;20114;-66
2023/11/25 09:36:22;;;;;;;10.63;1.30;;;6.00;99.90;;;;;;5118458;27;20046;-66
2023/11/25 09:38:48;;;;;;;12.15;2.63;;;6.10;99.90;;;;;;5117560;27;20039;-66
2023/11/25 09:41:15;;;;;;;11.43;1.55;;;6.20;99.90;;;;;;5121401;27;20554;-66
2023/11/25 09:43:45;;;;;;;18.15;1.55;;;6.20;99.90;;;;;;5117789;27;20055;-66
2023/11/25 09:46:11;;;;;;;11.57;1.42;;;6.40;99.90;;;;;;5148909;27;20044;-66
2023/11/25 09:48:36;;;;;;;9.82;2.13;;;6.50;99.90;;;;;;5118610;27;20094;-66
2023/11/25 09:51:07;;;;;;;11.65;1.27;;;6.60;99.90;;;;;;5114854;27;20070;-66
2023/11/25 09:53:36;;;;;;;5.15;0.73;;;6.60;99.90;;;;;;5119976;27;20056;-66
2023/11/25 09:56:06;;;;;;;4.95;1.30;;;6.70;99.90;;;;;;5113478;27;20075;-66
2023/11/25 09:58:36;;;;;;;4.05;0.70;;;6.70;99.90;;;;;;5102141;27;20069;-66
2023/11/25 10:01:05;;;;;;;6.00;0.88;;;6.80;99.90;;;;;;5110346;27;20055;-66
2023/11/25 10:03:36;;;;;;;4.53;1.08;;;6.70;99.90;;;;;;5116523;27;20552;-66
2023/11/25 10:06:02;;;;;;;5.60;1.15;;;6.80;99.90;;;;;;5111791;27;20047;-66
2023/11/25 10:08:28;;;;;;;5.35;1.20;;;6.80;99.90;;;;;;5118176;27;20053;-66
2023/11/25 10:11:00;;;;;;;4.72;0.60;;;6.80;99.90;;;;;;5145557;27;20520;-66
2023/11/25 10:13:31;;;;;;;4.35;0.60;;;6.90;99.90;;;;;;5113278;27;20093;-66
2023/11/25 10:15:57;;;;;;;5.15;0.65;;;6.80;99.90;;;;;;5145399;27;20531;-66
2023/11/25 10:18:24;;;;;;;4.65;1.23;;;6.80;99.90;;;;;;5117629;27;20036;-66
2023/11/25 10:20:57;;;;;;;4.75;0.95;;;6.90;99.90;;;;;;5111502;27;20047;-66
2023/11/25 10:23:23;;;;;;;9.02;1.40;;;6.90;99.90;;;;;;5144461;27;20044;-66
2023/11/25 10:25:52;;;;;;;5.88;1.55;;;7.00;99.90;;;;;;5083281;27;20128;-66
2023/11/25 10:28:20;;;;;;;12.25;1.25;;;7.10;99.90;;;;;;5097096;27;20168;-66
2023/11/25 10:31:05;;;;;;;7.88;1.17;;;7.00;99.90;;;;;;5133883;27;20043;-67
2023/11/25 10:33:31;;;;;;;5.32;1.00;;;7.30;99.90;;;;;;5102667;27;20047;-67
2023/11/25 10:35:58;;;;;;;7.68;0.98;;;7.50;99.90;;;;;;5131516;27;20455;-67
2023/11/25 10:38:29;;;;;;;4.75;0.85;;;7.50;99.90;;;;;;5102132;27;20379;-66
2023/11/25 10:41:02;;;;;;;4.32;0.50;;;7.60;99.90;;;;;;5101820;27;20532;-67
2023/11/25 10:43:30;;;;;;;6.32;0.65;;;7.60;99.90;;;;;;5135576;27;20070;-67
2023/11/25 10:46:05;;;;;;;4.35;0.70;;;7.60;99.90;;;;;;5136474;27;20071;-67
2023/11/25 10:48:32;;;;;;;6.85;0.90;;;7.70;99.90;;;;;;5101368;27;20055;-67
2023/11/25 10:51:00;;;;;;;3.00;0.45;;;7.60;99.90;;;;;;5097816;27;20406;-67
2023/11/25 10:53:29;;;;;;;3.92;0.50;;;7.60;99.90;;;;;;5102074;27;20051;-66
2023/11/25 10:55:56;;;;;;;3.97;0.60;;;7.70;99.90;;;;;;5099240;27;20047;-67
2023/11/25 10:58:22;;;;;;;3.70;0.52;;;7.70;99.90;;;;;;5130599;27;20052;-66
2023/11/25 11:00:48;;;;;;;3.08;0.40;;;7.80;99.90;;;;;;5101275;27;20440;-67
2023/11/25 11:03:15;;;;;;;5.57;1.23;;;8.00;99.90;;;;;;5112991;27;20044;-67
2023/11/25 11:06:01;;;;;;;8.13;1.33;;;8.00;99.90;;;;;;5101791;27;20440;-67
2023/11/25 11:08:37;;;;;;;6.20;0.70;;;7.90;99.90;;;;;;5100141;27;20433;-67
2023/11/25 11:11:16;;;;;;;10.68;1.52;;;8.00;99.90;;;;;;5128389;27;20035;-67
2023/11/25 11:13:46;;;;;;;8.25;1.38;;;8.20;99.90;;;;;;5106332;27;20524;-67
2023/11/25 11:16:30;;;;;;;10.30;1.25;;;8.30;99.90;;;;;;5099545;27;20126;-67
2023/11/25 11:18:57;;;;;;;9.82;1.38;;;8.50;99.90;;;;;;5107635;27;20059;-67
2023/11/25 11:21:31;;;;;;;6.93;1.08;;;8.60;99.90;;;;;;5106528;27;20027;-67
2023/11/25 11:23:57;;;;;;;8.88;1.25;;;8.70;99.90;;;;;;5107353;27;20097;-67
2023/11/25 11:26:49;;;;;;;10.32;1.50;;;8.90;99.90;;;;;;5105749;27;20621;-67
2023/11/25 11:29:20;;;;;;;8.38;2.05;;;9.10;99.90;;;;;;5100450;27;20106;-67
2023/11/25 11:31:57;;;;;;;13.32;2.47;;;9.20;99.90;;;;;;5101929;27;20050;-67
2023/11/25 11:34:25;;;;;;;9.45;1.38;;;9.40;99.90;;;;;;5137654;27;20068;-67
2023/11/25 11:36:52;;;;;;;9.23;1.65;;;9.50;99.90;;;;;;5102960;27;20069;-67
2023/11/25 11:39:50;;;;;;;11.55;1.98;;;9.40;99.90;;;;;;5128644;27;20051;-67
2023/11/25 11:42:22;;;;;;;7.97;1.45;;;9.40;99.90;;;;;;5130417;27;20058;-67
2023/11/25 11:44:55;;;;;;;20.20;2.97;;;9.40;99.90;;;;;;5096615;27;20089;-67
2023/11/25 11:47:22;;;;;;;10.73;1.60;;;9.30;99.90;;;;;;5104046;27;20494;-67
2023/11/25 11:49:49;;;;;;;9.70;1.27;;;9.30;99.90;;;;;;5101388;27;20101;-67
2023/11/25 11:52:14;;;;;;;6.78;1.60;;;9.40;99.90;;;;;;5128478;27;20075;-67
2023/11/25 11:54:41;;;;;;;4.85;0.73;;;9.00;99.90;;;;;;5100783;27;20441;-66
2023/11/25 11:57:13;;;;;;;6.50;0.75;;;8.90;99.90;;;;;;5096869;27;20051;-66
2023/11/25 12:00:01;;;;;;;11.18;0.98;;;8.90;99.90;;;;;;5098352;28;20086;-67
2023/11/25 12:02:30;;;;;;;11.55;1.50;;;9.00;99.90;;;;;;5103542;27;20036;-68
2023/11/25 12:05:00;;;;;;;6.90;1.23;;;9.00;99.90;;;;;;5098568;27;20047;-69
2023/11/25 12:07:29;;;;;;;3.60;1.30;;;9.10;99.90;;;;;;5130732;27;20054;-70
2023/11/25 12:09:55;;;;;;;4.72;0.70;;;9.10;99.90;;;;;;5131077;27;20042;-69
2023/11/25 12:12:22;;;;;;;6.55;1.13;;;9.10;99.90;;;;;;5095950;27;20113;-70
2023/11/25 12:14:48;;;;;;;5.05;1.25;;;9.10;99.90;;;;;;5097349;27;20048;-70
2023/11/25 12:17:15;;;;;;;8.40;1.13;;;9.20;99.90;;;;;;5098760;27;20035;-70
2023/11/25 12:19:44;;;;;;;5.32;1.02;;;9.10;99.90;;;;;;5095461;27;20040;-69
2023/11/25 12:22:11;;;;;;;7.57;0.75;;;9.20;99.90;;;;;;5098725;28;20039;-69
2023/11/25 12:24:39;;;;;;;10.90;1.75;;;9.20;99.90;;;;;;5098148;27;20108;-69
2023/11/25 12:27:07;;;;;;;5.68;0.93;;;9.10;99.90;;;;;;5130729;27;20031;-69
2023/11/25 12:29:34;;;;;;;8.50;1.23;;;9.10;99.90;;;;;;5104623;27;20043;-69
2023/11/25 12:32:00;;;;;;;7.10;1.17;;;9.20;99.90;;;;;;5127988;27;20066;-70
2023/11/25 12:34:26;;;;;;;8.00;0.93;;;9.30;99.90;;;;;;5102800;27;20043;-70
2023/11/25 12:36:52;;;;;;;4.47;0.95;;;9.40;99.90;;;;;;5105976;27;20496;-70
2023/11/25 12:39:18;;;;;;;3.97;0.85;;;9.30;99.90;;;;;;5096759;27;20067;-70
2023/11/25 12:41:44;;;;;;;3.38;0.45;;;9.10;99.90;;;;;;5101130;27;20101;-70
2023/11/25 12:44:10;;;;;;;4.00;0.50;;;8.90;99.90;;;;;;5098511;28;20040;-70
2023/11/25 12:46:39;;;;;;;3.83;0.60;;;8.60;99.90;;;;;;5098460;27;20052;-70
2023/11/25 12:49:21;;;;;;;4.20;1.20;;;8.50;99.90;;;;;;5098943;27;20057;-70
2023/11/25 12:51:48;;;;;;;6.07;0.60;;;8.30;99.90;;;;;;5100220;27;20044;-71
2023/11/25 12:54:14;;;;;;;2.45;0.50;;;8.10;99.90;;;;;;5098697;27;20039;-71